Time;durP1;ratioP1;P1;durP2;ratioP2;P2;SDS_P1;SDS_P2;PMS_P1;PMS_P2;Temp;Humidity;BMP_temperature;BMP_pressure;BME280_temperature;BME280_humidity;BME280_pressure;Samples;Min_cycle;Max_cycle;Signal;HPM_P1;HPM_P2
2024/03/07 00:00:40;;;;;;;2.47;1.20;;;;;;;;;;10356316;28;20455;-89
2024/03/07 00:05:42;;;;;;;1.30;1.10;;;;;;;;;;10360763;28;20391;-88
2024/03/07 00:10:46;;;;;;;1.65;1.20;;;;;;;;;;10360953;28;20422;-89
2024/03/07 00:15:52;;;;;;;2.10;1.23;;;;;;;;;;10363145;28;20411;-89
2024/03/07 00:20:55;;;;;;;1.73;1.30;;;;;;;;;;10364660;28;20758;-89
2024/03/07 00:25:59;;;;;;;2.05;1.40;;;;;;;;;;10369139;28;20438;-89
2024/03/07 00:31:02;;;;;;;3.73;1.67;;;;;;;;;;10362435;28;20471;-89
2024/03/07 00:36:06;;;;;;;2.55;1.70;;;;;;;;;;10360345;28;20475;-88
2024/03/07 00:41:11;;;;;;;3.10;2.03;;;;;;;;;;10355936;28;20515;-88
2024/03/07 00:46:13;;;;;;;3.45;2.17;;;;;;;;;;10356770;28;20465;-88
2024/03/07 00:51:16;;;;;;;3.25;1.90;;;;;;;;;;10364821;28;20415;-89
2024/03/07 00:56:20;;;;;;;3.30;2.35;;;;;;;;;;10345577;28;20407;-89
2024/03/07 01:01:23;;;;;;;3.47;2.22;;;;;;;;;;10347662;28;20424;-89
2024/03/07 01:06:25;;;;;;;2.63;2.00;;;;;;;;;;10349001;28;20411;-89
2024/03/07 01:11:29;;;;;;;4.40;2.10;;;;;;;;;;10358664;28;20485;-89
2024/03/07 01:16:31;;;;;;;2.60;2.20;;;;;;;;;;10361789;28;20502;-89
2024/03/07 01:21:34;;;;;;;3.13;2.10;;;;;;;;;;10357273;28;20424;-84
2024/03/07 01:26:39;;;;;;;2.65;2.03;;;;;;;;;;10359145;28;20457;-88
2024/03/07 01:31:41;;;;;;;3.75;2.65;;;;;;;;;;10347444;28;20465;-89
2024/03/07 01:36:44;;;;;;;3.35;2.15;;;;;;;;;;10348982;28;20445;-89
2024/03/07 01:41:48;;;;;;;3.28;2.45;;;;;;;;;;10350563;28;20487;-88
2024/03/07 01:46:51;;;;;;;4.20;2.50;;;;;;;;;;10345450;28;20479;-89
2024/03/07 01:51:53;;;;;;;3.40;2.50;;;;;;;;;;10349384;28;20464;-88
2024/03/07 01:56:58;;;;;;;2.73;2.33;;;;;;;;;;10346611;28;20496;-89
2024/03/07 02:02:02;;;;;;;3.75;2.40;;;;;;;;;;10353064;28;20428;-89
2024/03/07 02:07:04;;;;;;;3.25;2.00;;;;;;;;;;10347963;28;20403;-89
2024/03/07 02:12:09;;;;;;;4.00;2.53;;;;;;;;;;10355885;28;20524;-89
2024/03/07 02:17:11;;;;;;;3.22;2.40;;;;;;;;;;10359766;28;20930;-88
2024/03/07 02:22:15;;;;;;;2.78;2.45;;;;;;;;;;10356910;28;20493;-88
2024/03/07 02:27:18;;;;;;;2.97;2.35;;;;;;;;;;10356521;28;20446;-89
2024/03/07 02:32:20;;;;;;;3.97;2.43;;;;;;;;;;10354319;28;20446;-89
2024/03/07 02:37:24;;;;;;;4.33;2.90;;;;;;;;;;10352998;28;20904;-89
2024/03/07 02:42:26;;;;;;;3.92;2.50;;;;;;;;;;10349962;28;20411;-89
2024/03/07 02:47:29;;;;;;;3.90;2.55;;;;;;;;;;10359171;28;20441;-88
2024/03/07 02:52:33;;;;;;;3.63;2.63;;;;;;;;;;10358524;28;20411;-89
2024/03/07 02:57:36;;;;;;;4.20;2.47;;;;;;;;;;10348419;28;20772;-88
2024/03/07 03:02:38;;;;;;;4.57;2.67;;;;;;;;;;10357050;28;20399;-89
2024/03/07 03:07:44;;;;;;;4.47;2.80;;;;;;;;;;10353295;28;20440;-89
2024/03/07 03:12:47;;;;;;;3.38;2.80;;;;;;;;;;10353583;28;20403;-89
2024/03/07 03:17:49;;;;;;;4.00;2.73;;;;;;;;;;10356053;28;20427;-89
2024/03/07 03:22:54;;;;;;;4.32;2.85;;;;;;;;;;10355832;28;20497;-89
2024/03/07 03:27:56;;;;;;;5.07;3.15;;;;;;;;;;10352456;28;20421;-89
2024/03/07 03:32:59;;;;;;;3.70;3.15;;;;;;;;;;10341508;28;20897;-88
2024/03/07 03:38:03;;;;;;;4.50;3.30;;;;;;;;;;10332749;28;20450;-88
2024/03/07 03:43:06;;;;;;;4.20;3.30;;;;;;;;;;10354018;28;20478;-89
2024/03/07 03:48:08;;;;;;;5.45;4.13;;;;;;;;;;10355777;28;20466;-89
2024/03/07 03:53:12;;;;;;;6.47;4.30;;;;;;;;;;10356208;28;20825;-89
2024/03/07 03:58:14;;;;;;;7.03;4.60;;;;;;;;;;10358477;28;20419;-89
2024/03/07 04:03:17;;;;;;;6.57;4.90;;;;;;;;;;10356022;28;20409;-88
2024/03/07 04:08:21;;;;;;;5.72;4.60;;;;;;;;;;10358786;28;20423;-89
2024/03/07 04:13:23;;;;;;;5.30;4.50;;;;;;;;;;10353558;28;20411;-88
2024/03/07 04:18:26;;;;;;;6.53;4.93;;;;;;;;;;10357462;28;20444;-89
2024/03/07 04:23:30;;;;;;;6.57;4.70;;;;;;;;;;10361440;28;20458;-87
2024/03/07 04:28:32;;;;;;;7.10;4.80;;;;;;;;;;10350917;28;20461;-88
2024/03/07 04:33:35;;;;;;;6.82;4.43;;;;;;;;;;10346686;28;20465;-89
2024/03/07 04:38:44;;;;;;;6.32;5.00;;;;;;;;;;10363041;28;20897;-88
2024/03/07 04:43:46;;;;;;;6.13;4.97;;;;;;;;;;10354540;28;20929;-88
2024/03/07 04:48:49;;;;;;;6.85;4.80;;;;;;;;;;10353341;28;20400;-89
2024/03/07 04:53:53;;;;;;;7.45;4.93;;;;;;;;;;10356697;28;20468;-89
2024/03/07 04:58:55;;;;;;;6.35;5.55;;;;;;;;;;10358270;28;20491;-89
2024/03/07 05:03:57;;;;;;;6.35;5.22;;;;;;;;;;10361078;28;20852;-88
2024/03/07 05:09:02;;;;;;;5.20;4.50;;;;;;;;;;10354881;28;20488;-88
2024/03/07 05:14:05;;;;;;;6.90;5.07;;;;;;;;;;10358854;28;20419;-89
2024/03/07 05:19:08;;;;;;;7.00;4.80;;;;;;;;;;10356423;28;20448;-89
2024/03/07 05:24:11;;;;;;;7.75;5.20;;;;;;;;;;10352366;28;20438;-88
2024/03/07 05:29:15;;;;;;;6.55;5.40;;;;;;;;;;10359890;28;20412;-88
2024/03/07 05:34:18;;;;;;;5.53;4.68;;;;;;;;;;10355297;28;20822;-88
2024/03/07 05:39:24;;;;;;;6.57;5.00;;;;;;;;;;10365884;28;20427;-88
2024/03/07 05:44:27;;;;;;;8.13;4.85;;;;;;;;;;10354561;28;20786;-89
2024/03/07 05:49:31;;;;;;;12.25;6.65;;;;;;;;;;10353634;28;20413;-88
2024/03/07 05:54:35;;;;;;;15.43;8.13;;;;;;;;;;10360412;28;20509;-89
2024/03/07 05:59:38;;;;;;;17.52;8.65;;;;;;;;;;10362121;28;20455;-88
2024/03/07 06:04:41;;;;;;;8.07;5.47;;;;;;;;;;10351445;28;20474;-88
2024/03/07 06:09:45;;;;;;;5.73;4.53;;;;;;;;;;10352961;28;20458;-90
2024/03/07 06:14:49;;;;;;;6.27;4.83;;;;;;;;;;10348269;28;20490;-89
2024/03/07 06:19:51;;;;;;;6.13;4.57;;;;;;;;;;10356352;28;20427;-90
2024/03/07 06:25:06;;;;;;;7.20;4.15;;;;;;;;;;10355385;28;20407;-89
2024/03/07 06:30:09;;;;;;;7.65;4.20;;;;;;;;;;10358162;28;20469;-85
2024/03/07 06:35:12;;;;;;;5.72;3.55;;;;;;;;;;10340978;28;20983;-88
2024/03/07 06:40:21;;;;;;;6.65;3.70;;;;;;;;;;10353424;28;20499;-88
2024/03/07 06:45:24;;;;;;;4.90;3.80;;;;;;;;;;10361759;28;20395;-88
2024/03/07 06:50:28;;;;;;;6.07;4.10;;;;;;;;;;10344845;28;20412;-87
2024/03/07 06:55:33;;;;;;;5.18;3.80;;;;;;;;;;10354748;28;20442;-85
2024/03/07 07:00:36;;;;;;;6.85;4.47;;;;;;;;;;10351029;28;20452;-83
2024/03/07 07:05:40;;;;;;;8.13;4.72;;;;;;;;;;10349502;28;20415;-84
2024/03/07 07:10:44;;;;;;;7.50;4.87;;;;;;;;;;10336969;28;20420;-84
2024/03/07 07:15:47;;;;;;;6.30;4.25;;;;;;;;;;10331956;28;20409;-84
2024/03/07 07:20:49;;;;;;;7.60;4.60;;;;;;;;;;10342550;28;21192;-84
2024/03/07 07:25:53;;;;;;;7.53;4.95;;;;;;;;;;10346446;28;20477;-85
2024/03/07 07:30:55;;;;;;;11.07;6.25;;;;;;;;;;10338446;28;20884;-85
2024/03/07 07:35:57;;;;;;;12.38;7.40;;;;;;;;;;10333982;28;20405;-82
2024/03/07 07:41:02;;;;;;;11.20;7.30;;;;;;;;;;10354563;28;20462;-84
2024/03/07 07:46:05;;;;;;;8.02;5.47;;;;;;;;;;10346230;28;20493;-85
2024/03/07 07:56:13;;;;;;;9.48;5.88;;;;;;;;;;10358624;28;20896;-82
2024/03/07 08:01:16;;;;;;;9.75;5.63;;;;;;;;;;10328582;28;20464;-84
2024/03/07 08:06:18;;;;;;;8.88;5.35;;;;;;;;;;10342599;28;20444;-84
2024/03/07 08:11:22;;;;;;;9.57;5.70;;;;;;;;;;10354741;28;20823;-84
2024/03/07 08:16:25;;;;;;;9.67;5.83;;;;;;;;;;10356041;28;20506;-84
2024/03/07 08:21:27;;;;;;;10.30;6.70;;;;;;;;;;10358494;28;20468;-84
2024/03/07 08:26:32;;;;;;;12.07;7.17;;;;;;;;;;10344640;28;20415;-84
2024/03/07 08:31:35;;;;;;;13.07;7.07;;;;;;;;;;10340929;28;20986;-84
2024/03/07 08:36:39;;;;;;;12.25;6.75;;;;;;;;;;10349579;28;21039;-84
2024/03/07 08:41:46;;;;;;;10.57;6.07;;;;;;;;;;10348252;28;20456;-83
2024/03/07 08:46:48;;;;;;;12.77;6.60;;;;;;;;;;10349802;28;20407;-84
2024/03/07 08:51:50;;;;;;;7.80;5.43;;;;;;;;;;10347930;28;21044;-84
2024/03/07 08:56:54;;;;;;;8.27;5.10;;;;;;;;;;10346812;28;20452;-83
2024/03/07 09:01:59;;;;;;;6.82;3.97;;;;;;;;;;10343627;28;20909;-83
2024/03/07 09:07:01;;;;;;;5.97;3.72;;;;;;;;;;10348002;28;20438;-83
2024/03/07 09:12:06;;;;;;;7.50;3.88;;;;;;;;;;10350985;28;21018;-83
2024/03/07 09:17:09;;;;;;;7.73;4.60;;;;;;;;;;10347881;28;20439;-83
2024/03/07 09:22:11;;;;;;;10.00;4.55;;;;;;;;;;10355229;28;20455;-83
2024/03/07 09:27:19;;;;;;;7.18;4.45;;;;;;;;;;10346644;28;20533;-83
2024/03/07 09:32:24;;;;;;;8.52;5.10;;;;;;;;;;10347643;28;20440;-83
2024/03/07 09:37:27;;;;;;;9.48;4.97;;;;;;;;;;10352021;28;20438;-83
2024/03/07 09:42:31;;;;;;;8.95;5.30;;;;;;;;;;10355539;28;20481;-82
2024/03/07 09:47:33;;;;;;;9.70;6.23;;;;;;;;;;10351645;28;20458;-82
2024/03/07 09:52:36;;;;;;;9.32;5.72;;;;;;;;;;10341277;28;20998;-82
2024/03/07 09:57:40;;;;;;;9.15;5.15;;;;;;;;;;10342914;28;20442;-83
2024/03/07 10:02:44;;;;;;;8.47;4.83;;;;;;;;;;10342070;28;20466;-83
2024/03/07 10:07:46;;;;;;;7.23;4.23;;;;;;;;;;10343337;28;20413;-81
2024/03/07 10:12:52;;;;;;;8.10;5.72;;;;;;;;;;10344357;28;20479;-82
2024/03/07 10:17:54;;;;;;;10.60;6.47;;;;;;;;;;10344396;28;20532;-81
2024/03/07 10:22:57;;;;;;;12.00;6.70;;;;;;;;;;10346699;28;20915;-82
2024/03/07 10:28:01;;;;;;;12.82;6.95;;;;;;;;;;10342688;28;20811;-81
2024/03/07 10:33:03;;;;;;;13.32;6.93;;;;;;;;;;10339686;28;20448;-81
2024/03/07 10:38:07;;;;;;;10.20;5.68;;;;;;;;;;10355258;28;20422;-82
2024/03/07 10:43:14;;;;;;;9.90;5.40;;;;;;;;;;10337730;28;20460;-82
2024/03/07 10:48:19;;;;;;;9.50;5.10;;;;;;;;;;10349924;28;20449;-82
2024/03/07 10:53:30;;;;;;;7.97;4.30;;;;;;;;;;10344097;28;20431;-83
2024/03/07 10:58:43;;;;;;;5.03;3.38;;;;;;;;;;10343877;28;20409;-82
2024/03/07 11:03:46;;;;;;;6.78;4.22;;;;;;;;;;10341231;28;20506;-82
2024/03/07 11:08:49;;;;;;;8.63;4.78;;;;;;;;;;10347042;28;20450;-83
2024/03/07 11:13:54;;;;;;;7.23;4.20;;;;;;;;;;10337982;28;20411;-82
2024/03/07 11:19:19;;;;;;;7.30;4.07;;;;;;;;;;10342577;28;20411;-83
2024/03/07 11:24:25;;;;;;;6.83;4.27;;;;;;;;;;10350572;28;20462;-83
2024/03/07 11:29:46;;;;;;;5.80;3.80;;;;;;;;;;10341911;28;20442;-82
2024/03/07 11:34:50;;;;;;;5.93;3.70;;;;;;;;;;10344227;28;20510;-82
2024/03/07 11:39:55;;;;;;;7.20;3.33;;;;;;;;;;10340925;28;20490;-82
2024/03/07 11:45:03;;;;;;;6.05;3.00;;;;;;;;;;10347483;28;20462;-83
2024/03/07 11:50:11;;;;;;;5.45;2.90;;;;;;;;;;10344267;28;20498;-83
2024/03/07 11:55:16;;;;;;;4.33;2.77;;;;;;;;;;10350699;28;20444;-84
2024/03/07 12:00:24;;;;;;;4.38;2.63;;;;;;;;;;10351789;28;20403;-84
2024/03/07 12:05:26;;;;;;;5.20;3.40;;;;;;;;;;10355522;28;20514;-83
2024/03/07 12:10:29;;;;;;;5.72;3.70;;;;;;;;;;10349297;28;20541;-83
2024/03/07 12:15:34;;;;;;;4.70;3.13;;;;;;;;;;10337660;28;20477;-85
2024/03/07 12:20:38;;;;;;;6.28;3.08;;;;;;;;;;10327059;28;20881;-85
2024/03/07 12:25:42;;;;;;;5.57;2.90;;;;;;;;;;10333048;28;20540;-85
2024/03/07 12:30:53;;;;;;;4.80;2.90;;;;;;;;;;10334652;28;20450;-85
2024/03/07 12:36:05;;;;;;;6.30;3.95;;;;;;;;;;10333056;28;20457;-84
2024/03/07 12:41:13;;;;;;;7.68;4.40;;;;;;;;;;10339744;28;20447;-85
2024/03/07 12:46:18;;;;;;;5.75;3.35;;;;;;;;;;10335128;28;20458;-85
2024/03/07 12:51:22;;;;;;;4.93;3.42;;;;;;;;;;10341883;28;20493;-84
2024/03/07 12:56:25;;;;;;;8.03;3.53;;;;;;;;;;10331182;28;20481;-83
2024/03/07 13:01:29;;;;;;;7.03;3.90;;;;;;;;;;10342217;28;20522;-84
2024/03/07 13:06:31;;;;;;;7.32;4.28;;;;;;;;;;10344491;28;20474;-83
2024/03/07 13:11:33;;;;;;;6.85;4.22;;;;;;;;;;10348186;28;20591;-81
2024/03/07 13:16:37;;;;;;;5.50;3.60;;;;;;;;;;10344990;28;20421;-83
2024/03/07 13:21:40;;;;;;;6.65;4.40;;;;;;;;;;10343122;28;20466;-81
2024/03/07 13:26:44;;;;;;;7.40;4.90;;;;;;;;;;10339195;28;20929;-84
2024/03/07 13:31:47;;;;;;;5.47;3.57;;;;;;;;;;10341265;28;20494;-84
2024/03/07 13:36:51;;;;;;;7.25;4.13;;;;;;;;;;10346310;28;20455;-83
2024/03/07 13:41:53;;;;;;;5.53;3.50;;;;;;;;;;10349445;28;20466;-84
2024/03/07 13:46:59;;;;;;;4.63;3.05;;;;;;;;;;10343550;28;20451;-84
2024/03/07 13:52:10;;;;;;;5.40;2.93;;;;;;;;;;10348250;28;20454;-83
2024/03/07 13:57:26;;;;;;;12.50;6.90;;;;;;;;;;10342522;28;20888;-83
2024/03/07 14:02:53;;;;;;;6.87;3.90;;;;;;;;;;10343927;28;20465;-84
2024/03/07 14:08:14;;;;;;;5.17;2.93;;;;;;;;;;10341310;28;20574;-85
2024/03/07 14:13:37;;;;;;;2.10;1.73;;;;;;;;;;10362507;28;20487;-82
2024/03/07 14:19:28;;;;;;;7.30;4.15;;;;;;;;;;10349730;28;20493;-83
2024/03/07 14:25:18;;;;;;;30.83;12.67;;;;;;;;;;10345841;28;20514;-84
2024/03/07 14:30:40;;;;;;;4.88;2.75;;;;;;;;;;10343803;28;20435;-84
2024/03/07 14:36:03;;;;;;;3.45;2.28;;;;;;;;;;10341490;28;20489;-84
2024/03/07 14:41:07;;;;;;;4.05;2.63;;;;;;;;;;10347632;28;20513;-85
2024/03/07 14:46:12;;;;;;;15.10;6.57;;;;;;;;;;10346503;28;20514;-85
2024/03/07 14:51:16;;;;;;;4.10;2.78;;;;;;;;;;10351437;28;20983;-84
2024/03/07 14:56:19;;;;;;;8.30;4.63;;;;;;;;;;10344506;28;20458;-84
2024/03/07 15:01:23;;;;;;;9.15;5.50;;;;;;;;;;10345756;28;20968;-83
2024/03/07 15:06:31;;;;;;;12.10;7.13;;;;;;;;;;10346055;28;20447;-83
2024/03/07 15:11:35;;;;;;;7.47;4.67;;;;;;;;;;10341502;28;20433;-83
2024/03/07 15:16:39;;;;;;;3.90;2.38;;;;;;;;;;10353118;28;20448;-84
2024/03/07 15:21:43;;;;;;;4.45;2.65;;;;;;;;;;10342643;28;20508;-84
2024/03/07 15:26:45;;;;;;;5.38;2.80;;;;;;;;;;10344946;28;20932;-84
2024/03/07 15:31:47;;;;;;;4.67;2.50;;;;;;;;;;10345701;28;20480;-84
2024/03/07 15:37:02;;;;;;;3.65;2.50;;;;;;;;;;10340550;28;20440;-85
2024/03/07 15:42:09;;;;;;;3.92;2.38;;;;;;;;;;10341760;28;20513;-86
2024/03/07 15:47:11;;;;;;;5.70;2.67;;;;;;;;;;10339078;28;21178;-83
2024/03/07 15:52:18;;;;;;;4.77;2.37;;;;;;;;;;10336895;28;20483;-85
2024/03/07 15:57:21;;;;;;;4.17;2.70;;;;;;;;;;10339041;28;20571;-85
2024/03/07 16:02:23;;;;;;;4.93;2.83;;;;;;;;;;10335859;28;20457;-83
2024/03/07 16:07:27;;;;;;;5.93;2.97;;;;;;;;;;10337947;28;20459;-83
2024/03/07 16:12:33;;;;;;;8.30;5.05;;;;;;;;;;10350707;28;20503;-81
2024/03/07 16:17:36;;;;;;;6.47;4.30;;;;;;;;;;10343309;28;20447;-83
2024/03/07 16:22:43;;;;;;;6.83;4.43;;;;;;;;;;10365495;28;20462;-84
2024/03/07 16:27:46;;;;;;;11.18;4.53;;;;;;;;;;10368857;28;20458;-83
2024/03/07 16:32:55;;;;;;;5.93;4.05;;;;;;;;;;10350490;28;20511;-83
2024/03/07 16:38:00;;;;;;;6.87;4.23;;;;;;;;;;10358908;28;21002;-83
2024/03/07 16:43:07;;;;;;;5.27;3.63;;;;;;;;;;10375848;28;20447;-83
2024/03/07 16:48:11;;;;;;;9.88;4.82;;;;;;;;;;10372144;28;20447;-82
2024/03/07 16:53:16;;;;;;;9.15;5.70;;;;;;;;;;10370816;28;20485;-82
2024/03/07 16:58:18;;;;;;;11.80;6.87;;;;;;;;;;10369832;28;20507;-83
2024/03/07 17:03:24;;;;;;;10.90;6.67;;;;;;;;;;10358250;28;20518;-82
2024/03/07 17:08:28;;;;;;;10.50;6.10;;;;;;;;;;10371966;28;20878;-82
2024/03/07 17:13:30;;;;;;;12.55;7.47;;;;;;;;;;10380559;28;20460;-83
2024/03/07 17:18:34;;;;;;;10.67;6.30;;;;;;;;;;10368432;28;20505;-83
2024/03/07 17:23:38;;;;;;;12.73;8.90;;;;;;;;;;10370491;28;20455;-82
2024/03/07 17:28:40;;;;;;;14.57;10.25;;;;;;;;;;10357581;28;20845;-83
2024/03/07 17:33:43;;;;;;;14.85;9.10;;;;;;;;;;10356596;28;20477;-86
2024/03/07 17:38:46;;;;;;;13.30;8.65;;;;;;;;;;10364875;28;20447;-84
2024/03/07 17:43:49;;;;;;;10.65;7.15;;;;;;;;;;10346912;28;20896;-85
2024/03/07 17:48:52;;;;;;;11.23;6.30;;;;;;;;;;10341176;28;20857;-85
2024/03/07 17:53:56;;;;;;;12.23;7.10;;;;;;;;;;10337265;28;21019;-85
2024/03/07 17:58:59;;;;;;;15.95;7.60;;;;;;;;;;10341766;28;20446;-84
2024/03/07 18:04:06;;;;;;;15.20;9.43;;;;;;;;;;10345243;28;20527;-86
2024/03/07 18:09:27;;;;;;;12.00;8.15;;;;;;;;;;10357746;28;20481;-85
2024/03/07 18:14:32;;;;;;;13.57;8.32;;;;;;;;;;10332880;28;20543;-85
2024/03/07 18:19:35;;;;;;;16.05;9.48;;;;;;;;;;10337387;28;20489;-84
2024/03/07 18:24:39;;;;;;;12.25;8.38;;;;;;;;;;10340076;28;20531;-83
2024/03/07 18:29:42;;;;;;;10.87;7.87;;;;;;;;;;10337965;28;20455;-85
2024/03/07 18:34:46;;;;;;;13.38;7.95;;;;;;;;;;10336380;28;20509;-83
2024/03/07 18:39:51;;;;;;;12.57;7.90;;;;;;;;;;10345635;28;20877;-84
2024/03/07 18:44:56;;;;;;;12.00;7.88;;;;;;;;;;10334750;28;20454;-84
2024/03/07 18:49:58;;;;;;;11.23;6.78;;;;;;;;;;10337670;28;20456;-86
2024/03/07 18:55:16;;;;;;;10.65;6.47;;;;;;;;;;10344390;28;20449;-86
2024/03/07 19:00:37;;;;;;;8.40;5.05;;;;;;;;;;10341142;28;20512;-87
2024/03/07 19:05:48;;;;;;;7.53;4.40;;;;;;;;;;10344348;28;20413;-88
2024/03/07 19:10:53;;;;;;;6.88;4.20;;;;;;;;;;10339216;28;20848;-85
2024/03/07 19:15:56;;;;;;;9.27;5.47;;;;;;;;;;10330378;28;20452;-85
2024/03/07 19:20:59;;;;;;;9.30;6.00;;;;;;;;;;10334635;28;20441;-85
2024/03/07 19:26:08;;;;;;;10.77;6.32;;;;;;;;;;10325658;28;20507;-84
2024/03/07 19:31:13;;;;;;;12.05;6.85;;;;;;;;;;10317176;28;20448;-84
2024/03/07 19:36:16;;;;;;;12.23;7.20;;;;;;;;;;10321187;28;20480;-84
2024/03/07 19:41:22;;;;;;;11.35;6.40;;;;;;;;;;10329988;28;20510;-85
2024/03/07 19:46:28;;;;;;;12.88;7.30;;;;;;;;;;10330348;28;20489;-84
2024/03/07 19:51:30;;;;;;;10.50;6.70;;;;;;;;;;10326415;28;20508;-84
2024/03/07 19:56:34;;;;;;;10.57;6.15;;;;;;;;;;10332678;28;20526;-85
2024/03/07 20:01:38;;;;;;;10.55;6.03;;;;;;;;;;10330376;28;21050;-84
2024/03/07 20:06:40;;;;;;;8.70;5.43;;;;;;;;;;10332871;28;20455;-85
2024/03/07 20:11:46;;;;;;;9.80;5.67;;;;;;;;;;10332367;28;20428;-85
2024/03/07 20:16:49;;;;;;;8.80;5.67;;;;;;;;;;10331149;28;20514;-85
2024/03/07 20:21:52;;;;;;;10.02;5.57;;;;;;;;;;10330528;28;20446;-84
2024/03/07 20:26:56;;;;;;;8.93;5.78;;;;;;;;;;10352953;28;20462;-84
2024/03/07 20:31:59;;;;;;;9.40;5.82;;;;;;;;;;10352495;28;20419;-84
2024/03/07 20:37:02;;;;;;;8.82;5.40;;;;;;;;;;10354648;28;20448;-84
2024/03/07 20:42:09;;;;;;;9.53;5.47;;;;;;;;;;10352061;28;20454;-83
2024/03/07 20:47:12;;;;;;;10.25;5.05;;;;;;;;;;10343428;28;20421;-83
2024/03/07 20:52:14;;;;;;;7.93;5.20;;;;;;;;;;10347749;28;20949;-83
2024/03/07 20:57:19;;;;;;;8.63;5.50;;;;;;;;;;10340201;28;20460;-84
2024/03/07 21:02:21;;;;;;;9.60;5.27;;;;;;;;;;10336732;28;21004;-84
2024/03/07 21:07:23;;;;;;;9.25;5.32;;;;;;;;;;10346395;28;21235;-83
2024/03/07 21:12:28;;;;;;;13.90;8.60;;;;;;;;;;10340485;28;20489;-84
2024/03/07 21:17:36;;;;;;;10.73;6.80;;;;;;;;;;10338647;28;20576;-84
2024/03/07 21:22:42;;;;;;;9.38;5.45;;;;;;;;;;10339061;28;20493;-83
2024/03/07 21:27:47;;;;;;;9.27;6.03;;;;;;;;;;10340274;28;20530;-86
2024/03/07 21:32:53;;;;;;;10.50;5.57;;;;;;;;;;10355443;28;20862;-86
2024/03/07 21:37:55;;;;;;;9.55;6.10;;;;;;;;;;10347367;28;20452;-84
2024/03/07 21:43:03;;;;;;;8.90;5.97;;;;;;;;;;10349004;28;20439;-82
2024/03/07 21:48:07;;;;;;;11.30;6.57;;;;;;;;;;10340378;28;20786;-86
2024/03/07 21:53:10;;;;;;;8.05;5.38;;;;;;;;;;10356648;28;20447;-86
2024/03/07 21:58:16;;;;;;;8.70;5.35;;;;;;;;;;10358536;28;20438;-86
2024/03/07 22:03:18;;;;;;;9.35;5.28;;;;;;;;;;10352048;28;20919;-85
2024/03/07 22:08:21;;;;;;;7.88;5.05;;;;;;;;;;10353540;28;20459;-84
2024/03/07 22:13:25;;;;;;;7.60;4.93;;;;;;;;;;10351791;28;20431;-85
2024/03/07 22:18:30;;;;;;;8.63;5.65;;;;;;;;;;10346027;28;20516;-83
2024/03/07 22:23:32;;;;;;;8.43;4.80;;;;;;;;;;10347696;28;20459;-84
2024/03/07 22:28:37;;;;;;;8.93;4.37;;;;;;;;;;10343789;28;20933;-86
2024/03/07 22:33:41;;;;;;;9.70;4.95;;;;;;;;;;10356183;28;20480;-84
2024/03/07 22:38:43;;;;;;;7.68;4.50;;;;;;;;;;10350730;28;20481;-85
2024/03/07 22:43:50;;;;;;;8.03;4.40;;;;;;;;;;10350959;28;20458;-85
2024/03/07 22:48:52;;;;;;;8.05;4.70;;;;;;;;;;10334079;28;20960;-85
2024/03/07 22:53:55;;;;;;;7.87;5.10;;;;;;;;;;10335248;28;20417;-86
2024/03/07 22:58:59;;;;;;;8.73;5.53;;;;;;;;;;10329560;28;20480;-84
2024/03/07 23:04:05;;;;;;;8.83;5.17;;;;;;;;;;10333742;28;20459;-85
2024/03/07 23:09:08;;;;;;;8.05;4.40;;;;;;;;;;10349359;28;20471;-85
2024/03/07 23:14:12;;;;;;;7.80;4.83;;;;;;;;;;10348148;28;20903;-86
2024/03/07 23:19:15;;;;;;;8.40;5.10;;;;;;;;;;10345440;28;20417;-86
2024/03/07 23:24:17;;;;;;;7.07;4.82;;;;;;;;;;10347535;28;20532;-85
2024/03/07 23:29:21;;;;;;;8.43;5.35;;;;;;;;;;10356146;28;20886;-85
2024/03/07 23:34:23;;;;;;;9.23;4.80;;;;;;;;;;10368532;28;20455;-85
2024/03/07 23:39:26;;;;;;;8.90;5.07;;;;;;;;;;10364663;28;20510;-86
2024/03/07 23:44:30;;;;;;;8.13;5.05;;;;;;;;;;10373627;28;20528;-86
2024/03/07 23:49:33;;;;;;;9.30;5.30;;;;;;;;;;10359525;28;20963;-86
2024/03/07 23:54:36;;;;;;;7.18;4.47;;;;;;;;;;10353696;28;21018;-86
2024/03/07 23:59:39;;;;;;;7.27;4.57;;;;;;;;;;10355124;28;20446;-85
